sensor_id;sensor_type;location;lat;lon;timestamp;pressure;altitude;pressure_sealevel;temperature;humidity
57290;BME280;43523;53.022;-1.178;2023-06-26T00:00:08;100696.91;;;11.57;100.00
57290;BME280;43523;53.022;-1.178;2023-06-26T00:01:12;100696.06;;;10.62;100.00
57290;BME280;43523;53.022;-1.178;2023-06-26T00:02:14;100696.61;;;11.02;100.00
57290;BME280;43523;53.022;-1.178;2023-06-26T00:03:17;100695.08;;;10.37;100.00
57290;BME280;43523;53.022;-1.178;2023-06-26T00:04:24;100697.51;;;10.45;100.00
57290;BME280;43523;53.022;-1.178;2023-06-26T00:05:27;100695.96;;;10.37;100.00
57290;BME280;43523;53.022;-1.178;2023-06-26T00:06:29;100698.52;;;10.37;100.00
57290;BME280;43523;53.022;-1.178;2023-06-26T00:07:33;100698.03;;;10.59;100.00
57290;BME280;43523;53.022;-1.178;2023-06-26T00:14:23;100698.91;;;10.75;100.00
57290;BME280;43523;53.022;-1.178;2023-06-26T00:15:24;100703.09;;;9.50;100.00
57290;BME280;43523;53.022;-1.178;2023-06-26T00:16:26;100702.08;;;9.80;100.00
57290;BME280;43523;53.022;-1.178;2023-06-26T00:17:36;100704.26;;;10.13;100.00
57290;BME280;43523;53.022;-1.178;2023-06-26T00:18:43;100701.98;;;10.62;100.00
57290;BME280;43523;53.022;-1.178;2023-06-26T00:19:47;100697.05;;;10.50;100.00
57290;BME280;43523;53.022;-1.178;2023-06-26T00:20:49;100699.38;;;10.50;100.00
57290;BME280;43523;53.022;-1.178;2023-06-26T00:21:53;100700.10;;;10.54;100.00
57290;BME280;43523;53.022;-1.178;2023-06-26T00:22:55;100697.74;;;10.37;100.00
57290;BME280;43523;53.022;-1.178;2023-06-26T00:23:57;100701.76;;;9.86;100.00
57290;BME280;43523;53.022;-1.178;2023-06-26T00:25:00;100702.56;;;10.09;100.00
57290;BME280;43523;53.022;-1.178;2023-06-26T00:26:02;100700.05;;;10.82;100.00
57290;BME280;43523;53.022;-1.178;2023-06-26T00:27:05;100701.51;;;10.78;100.00
57290;BME280;43523;53.022;-1.178;2023-06-26T00:28:09;100703.70;;;10.40;100.00
57290;BME280;43523;53.022;-1.178;2023-06-26T00:29:13;100706.88;;;10.14;100.00
57290;BME280;43523;53.022;-1.178;2023-06-26T00:30:17;100705.80;;;10.11;100.00
57290;BME280;43523;53.022;-1.178;2023-06-26T00:31:19;100705.96;;;9.95;100.00
57290;BME280;43523;53.022;-1.178;2023-06-26T00:32:22;100705.10;;;10.10;100.00
57290;BME280;43523;53.022;-1.178;2023-06-26T00:33:25;100709.61;;;9.84;100.00
57290;BME280;43523;53.022;-1.178;2023-06-26T00:34:27;100715.53;;;10.34;100.00
57290;BME280;43523;53.022;-1.178;2023-06-26T00:35:29;100709.09;;;10.11;100.00
57290;BME280;43523;53.022;-1.178;2023-06-26T00:36:31;100715.72;;;9.68;100.00
57290;BME280;43523;53.022;-1.178;2023-06-26T00:37:34;100716.09;;;10.19;100.00
57290;BME280;43523;53.022;-1.178;2023-06-26T00:38:36;100711.57;;;10.05;100.00
57290;BME280;43523;53.022;-1.178;2023-06-26T00:39:39;100721.00;;;9.84;100.00
57290;BME280;43523;53.022;-1.178;2023-06-26T00:40:41;100722.22;;;10.02;100.00
57290;BME280;43523;53.022;-1.178;2023-06-26T00:41:43;100724.08;;;9.51;100.00
57290;BME280;43523;53.022;-1.178;2023-06-26T00:42:46;100725.48;;;10.04;100.00
57290;BME280;43523;53.022;-1.178;2023-06-26T00:43:49;100726.64;;;10.24;100.00
57290;BME280;43523;53.022;-1.178;2023-06-26T00:44:51;100726.04;;;10.10;100.00
57290;BME280;43523;53.022;-1.178;2023-06-26T00:45:54;100725.07;;;10.16;100.00
57290;BME280;43523;53.022;-1.178;2023-06-26T00:46:58;100721.79;;;10.30;100.00
57290;BME280;43523;53.022;-1.178;2023-06-26T00:48:02;100725.97;;;10.34;100.00
57290;BME280;43523;53.022;-1.178;2023-06-26T00:49:08;100725.45;;;10.49;100.00
57290;BME280;43523;53.022;-1.178;2023-06-26T00:50:13;100727.82;;;10.34;100.00
57290;BME280;43523;53.022;-1.178;2023-06-26T00:51:15;100730.85;;;9.50;100.00
57290;BME280;43523;53.022;-1.178;2023-06-26T00:52:21;100734.37;;;9.48;100.00
57290;BME280;43523;53.022;-1.178;2023-06-26T00:53:23;100731.06;;;9.99;100.00
57290;BME280;43523;53.022;-1.178;2023-06-26T00:54:26;100731.44;;;9.56;100.00
57290;BME280;43523;53.022;-1.178;2023-06-26T00:55:29;100729.29;;;10.04;100.00
57290;BME280;43523;53.022;-1.178;2023-06-26T00:56:31;100733.15;;;9.70;100.00
57290;BME280;43523;53.022;-1.178;2023-06-26T00:57:34;100732.68;;;9.90;100.00
57290;BME280;43523;53.022;-1.178;2023-06-26T00:58:37;100731.22;;;9.78;100.00
57290;BME280;43523;53.022;-1.178;2023-06-26T00:59:40;100736.18;;;9.82;100.00
57290;BME280;43523;53.022;-1.178;2023-06-26T01:00:43;100733.79;;;9.89;100.00
57290;BME280;43523;53.022;-1.178;2023-06-26T01:01:47;100730.17;;;9.95;100.00
57290;BME280;43523;53.022;-1.178;2023-06-26T01:02:50;100733.26;;;9.79;100.00
57290;BME280;43523;53.022;-1.178;2023-06-26T01:03:54;100729.08;;;10.09;100.00
57290;BME280;43523;53.022;-1.178;2023-06-26T01:04:57;100728.17;;;9.37;100.00
57290;BME280;43523;53.022;-1.178;2023-06-26T01:05:59;100728.26;;;9.55;100.00
57290;BME280;43523;53.022;-1.178;2023-06-26T01:07:07;100734.72;;;9.78;100.00
57290;BME280;43523;53.022;-1.178;2023-06-26T01:08:14;100729.80;;;9.52;100.00
57290;BME280;43523;53.022;-1.178;2023-06-26T01:09:18;100727.47;;;9.54;100.00
57290;BME280;43523;53.022;-1.178;2023-06-26T01:10:21;100729.16;;;9.12;100.00
57290;BME280;43523;53.022;-1.178;2023-06-26T01:11:25;100732.44;;;9.20;100.00
57290;BME280;43523;53.022;-1.178;2023-06-26T01:12:27;100734.37;;;9.69;100.00
57290;BME280;43523;53.022;-1.178;2023-06-26T01:13:31;100732.36;;;9.52;100.00
57290;BME280;43523;53.022;-1.178;2023-06-26T01:14:34;100735.03;;;10.21;100.00
57290;BME280;43523;53.022;-1.178;2023-06-26T01:15:36;100734.74;;;10.45;100.00
57290;BME280;43523;53.022;-1.178;2023-06-26T01:16:39;100736.26;;;9.49;100.00
57290;BME280;43523;53.022;-1.178;2023-06-26T01:17:43;100737.70;;;9.90;100.00
57290;BME280;43523;53.022;-1.178;2023-06-26T01:18:48;100738.76;;;9.85;100.00
57290;BME280;43523;53.022;-1.178;2023-06-26T01:19:52;100740.44;;;10.03;100.00
57290;BME280;43523;53.022;-1.178;2023-06-26T01:20:55;100741.31;;;9.53;100.00
57290;BME280;43523;53.022;-1.178;2023-06-26T01:22:07;100745.15;;;9.48;100.00
57290;BME280;43523;53.022;-1.178;2023-06-26T01:23:17;100746.28;;;10.02;100.00
57290;BME280;43523;53.022;-1.178;2023-06-26T01:24:21;100744.51;;;9.90;100.00
57290;BME280;43523;53.022;-1.178;2023-06-26T01:25:40;100742.22;;;9.83;100.00
57290;BME280;43523;53.022;-1.178;2023-06-26T01:26:44;100745.34;;;9.98;100.00
57290;BME280;43523;53.022;-1.178;2023-06-26T01:27:48;100746.90;;;9.82;100.00
57290;BME280;43523;53.022;-1.178;2023-06-26T01:28:52;100748.75;;;10.40;100.00
57290;BME280;43523;53.022;-1.178;2023-06-26T01:29:55;100746.53;;;10.13;100.00
57290;BME280;43523;53.022;-1.178;2023-06-26T01:30:59;100745.60;;;10.16;100.00
57290;BME280;43523;53.022;-1.178;2023-06-26T01:32:03;100751.04;;;10.15;100.00
57290;BME280;43523;53.022;-1.178;2023-06-26T01:33:06;100747.43;;;10.32;100.00
57290;BME280;43523;53.022;-1.178;2023-06-26T01:34:08;100746.93;;;10.55;100.00
57290;BME280;43523;53.022;-1.178;2023-06-26T01:35:15;100746.93;;;10.61;100.00
57290;BME280;43523;53.022;-1.178;2023-06-26T01:36:18;100748.13;;;10.94;100.00
57290;BME280;43523;53.022;-1.178;2023-06-26T01:37:20;100749.60;;;10.20;100.00
57290;BME280;43523;53.022;-1.178;2023-06-26T01:38:23;100747.63;;;10.31;100.00
57290;BME280;43523;53.022;-1.178;2023-06-26T01:39:25;100750.75;;;10.66;100.00
57290;BME280;43523;53.022;-1.178;2023-06-26T01:40:27;100753.42;;;10.12;100.00
57290;BME280;43523;53.022;-1.178;2023-06-26T01:41:30;100747.66;;;11.05;100.00
57290;BME280;43523;53.022;-1.178;2023-06-26T01:42:33;100750.44;;;10.23;100.00
57290;BME280;43523;53.022;-1.178;2023-06-26T01:43:43;100746.49;;;10.18;100.00
57290;BME280;43523;53.022;-1.178;2023-06-26T01:44:52;100748.21;;;11.11;100.00
57290;BME280;43523;53.022;-1.178;2023-06-26T01:45:59;100751.51;;;10.57;100.00
57290;BME280;43523;53.022;-1.178;2023-06-26T01:47:06;100753.31;;;9.92;100.00
57290;BME280;43523;53.022;-1.178;2023-06-26T01:48:12;100755.47;;;10.72;100.00
57290;BME280;43523;53.022;-1.178;2023-06-26T01:49:20;100758.87;;;10.54;100.00
57290;BME280;43523;53.022;-1.178;2023-06-26T01:50:28;100760.55;;;10.12;100.00
57290;BME280;43523;53.022;-1.178;2023-06-26T01:51:38;100762.10;;;9.31;100.00
57290;BME280;43523;53.022;-1.178;2023-06-26T01:52:49;100763.39;;;9.77;100.00
57290;BME280;43523;53.022;-1.178;2023-06-26T01:53:57;100760.07;;;10.09;100.00
57290;BME280;43523;53.022;-1.178;2023-06-26T01:55:07;100764.28;;;10.09;100.00
57290;BME280;43523;53.022;-1.178;2023-06-26T01:56:13;100763.54;;;9.78;100.00
57290;BME280;43523;53.022;-1.178;2023-06-26T01:57:18;100765.99;;;9.53;100.00
57290;BME280;43523;53.022;-1.178;2023-06-26T01:58:23;100767.39;;;9.53;100.00
57290;BME280;43523;53.022;-1.178;2023-06-26T01:59:28;100770.84;;;9.30;100.00
57290;BME280;43523;53.022;-1.178;2023-06-26T02:00:34;100768.43;;;10.26;100.00
57290;BME280;43523;53.022;-1.178;2023-06-26T02:01:37;100767.27;;;9.68;100.00
57290;BME280;43523;53.022;-1.178;2023-06-26T02:02:40;100768.59;;;9.82;100.00
57290;BME280;43523;53.022;-1.178;2023-06-26T02:03:43;100765.62;;;10.20;100.00
57290;BME280;43523;53.022;-1.178;2023-06-26T02:04:45;100768.04;;;10.49;100.00
57290;BME280;43523;53.022;-1.178;2023-06-26T02:05:48;100768.65;;;10.83;100.00
57290;BME280;43523;53.022;-1.178;2023-06-26T02:06:50;100768.69;;;10.64;100.00
57290;BME280;43523;53.022;-1.178;2023-06-26T02:07:53;100769.87;;;10.45;100.00
57290;BME280;43523;53.022;-1.178;2023-06-26T02:08:55;100774.94;;;9.84;100.00
57290;BME280;43523;53.022;-1.178;2023-06-26T02:09:57;100776.91;;;10.13;100.00
57290;BME280;43523;53.022;-1.178;2023-06-26T02:10:59;100774.03;;;10.31;100.00
57290;BME280;43523;53.022;-1.178;2023-06-26T02:12:02;100774.03;;;9.89;100.00
57290;BME280;43523;53.022;-1.178;2023-06-26T02:13:05;100770.16;;;10.24;100.00
57290;BME280;43523;53.022;-1.178;2023-06-26T02:14:08;100771.35;;;10.19;100.00
57290;BME280;43523;53.022;-1.178;2023-06-26T02:15:10;100769.35;;;10.09;100.00
57290;BME280;43523;53.022;-1.178;2023-06-26T02:16:16;100773.38;;;9.23;100.00
57290;BME280;43523;53.022;-1.178;2023-06-26T02:17:18;100773.25;;;9.64;100.00
57290;BME280;43523;53.022;-1.178;2023-06-26T02:18:21;100778.51;;;9.18;100.00
57290;BME280;43523;53.022;-1.178;2023-06-26T02:19:23;100778.16;;;9.52;100.00
57290;BME280;43523;53.022;-1.178;2023-06-26T02:20:25;100773.62;;;9.73;100.00
57290;BME280;43523;53.022;-1.178;2023-06-26T02:21:28;100774.26;;;10.34;100.00
57290;BME280;43523;53.022;-1.178;2023-06-26T02:22:30;100771.15;;;10.42;100.00
57290;BME280;43523;53.022;-1.178;2023-06-26T02:23:32;100771.92;;;9.67;100.00
57290;BME280;43523;53.022;-1.178;2023-06-26T02:24:34;100773.25;;;9.80;100.00
57290;BME280;43523;53.022;-1.178;2023-06-26T02:25:37;100769.51;;;9.76;100.00
57290;BME280;43523;53.022;-1.178;2023-06-26T02:26:39;100768.33;;;10.11;100.00
57290;BME280;43523;53.022;-1.178;2023-06-26T02:27:41;100770.29;;;9.66;100.00
57290;BME280;43523;53.022;-1.178;2023-06-26T02:28:44;100771.55;;;9.90;100.00
57290;BME280;43523;53.022;-1.178;2023-06-26T02:29:46;100773.65;;;10.03;100.00
57290;BME280;43523;53.022;-1.178;2023-06-26T02:30:51;100776.86;;;9.33;100.00
57290;BME280;43523;53.022;-1.178;2023-06-26T02:31:53;100777.95;;;9.42;100.00
57290;BME280;43523;53.022;-1.178;2023-06-26T02:32:56;100776.46;;;9.80;100.00
57290;BME280;43523;53.022;-1.178;2023-06-26T02:33:58;100776.12;;;10.05;100.00
57290;BME280;43523;53.022;-1.178;2023-06-26T02:35:00;100776.69;;;9.88;100.00
57290;BME280;43523;53.022;-1.178;2023-06-26T02:36:03;100778.33;;;10.03;100.00
57290;BME280;43523;53.022;-1.178;2023-06-26T02:37:06;100778.18;;;9.42;100.00
57290;BME280;43523;53.022;-1.178;2023-06-26T02:38:09;100779.66;;;9.47;100.00
57290;BME280;43523;53.022;-1.178;2023-06-26T02:39:12;100780.55;;;9.17;100.00
57290;BME280;43523;53.022;-1.178;2023-06-26T02:40:15;100785.43;;;9.57;100.00
57290;BME280;43523;53.022;-1.178;2023-06-26T02:41:16;100784.27;;;9.02;100.00
57290;BME280;43523;53.022;-1.178;2023-06-26T02:42:19;100786.15;;;9.30;100.00
57290;BME280;43523;53.022;-1.178;2023-06-26T02:43:22;100786.95;;;9.34;100.00
57290;BME280;43523;53.022;-1.178;2023-06-26T02:44:24;100790.03;;;9.53;100.00
57290;BME280;43523;53.022;-1.178;2023-06-26T02:45:27;100790.97;;;8.87;100.00
57290;BME280;43523;53.022;-1.178;2023-06-26T02:46:29;100789.39;;;9.32;100.00
57290;BME280;43523;53.022;-1.178;2023-06-26T02:47:32;100789.13;;;9.46;100.00
57290;BME280;43523;53.022;-1.178;2023-06-26T02:48:34;100791.76;;;8.49;100.00
57290;BME280;43523;53.022;-1.178;2023-06-26T02:49:40;100790.22;;;7.93;100.00
57290;BME280;43523;53.022;-1.178;2023-06-26T02:50:46;100790.26;;;8.37;100.00
57290;BME280;43523;53.022;-1.178;2023-06-26T02:51:51;100792.30;;;7.85;100.00
57290;BME280;43523;53.022;-1.178;2023-06-26T02:52:59;100791.42;;;7.69;100.00
57290;BME280;43523;53.022;-1.178;2023-06-26T02:54:07;100793.50;;;7.39;100.00
57290;BME280;43523;53.022;-1.178;2023-06-26T02:55:13;100789.73;;;8.17;100.00
57290;BME280;43523;53.022;-1.178;2023-06-26T02:56:19;100786.83;;;8.24;100.00
57290;BME280;43523;53.022;-1.178;2023-06-26T02:57:37;100787.27;;;7.88;100.00
57290;BME280;43523;53.022;-1.178;2023-06-26T02:58:43;100790.41;;;8.14;100.00
57290;BME280;43523;53.022;-1.178;2023-06-26T02:59:50;100787.93;;;7.89;100.00
57290;BME280;43523;53.022;-1.178;2023-06-26T03:00:56;100791.18;;;7.96;100.00
57290;BME280;43523;53.022;-1.178;2023-06-26T03:02:01;100793.36;;;7.46;100.00
57290;BME280;43523;53.022;-1.178;2023-06-26T03:03:08;100793.52;;;7.98;100.00
57290;BME280;43523;53.022;-1.178;2023-06-26T03:04:17;100794.59;;;7.89;100.00
57290;BME280;43523;53.022;-1.178;2023-06-26T03:05:25;100796.05;;;7.90;100.00
57290;BME280;43523;53.022;-1.178;2023-06-26T03:06:31;100795.43;;;8.36;100.00
57290;BME280;43523;53.022;-1.178;2023-06-26T03:07:38;100798.94;;;8.29;100.00
57290;BME280;43523;53.022;-1.178;2023-06-26T03:08:44;100798.06;;;8.50;100.00
57290;BME280;43523;53.022;-1.178;2023-06-26T03:09:51;100797.58;;;8.16;100.00
57290;BME280;43523;53.022;-1.178;2023-06-26T03:10:57;100799.96;;;8.11;100.00
57290;BME280;43523;53.022;-1.178;2023-06-26T03:12:04;100803.14;;;7.53;100.00
57290;BME280;43523;53.022;-1.178;2023-06-26T03:13:10;100803.68;;;7.79;100.00
57290;BME280;43523;53.022;-1.178;2023-06-26T03:14:16;100807.33;;;7.52;100.00
57290;BME280;43523;53.022;-1.178;2023-06-26T03:15:30;100802.62;;;7.99;100.00
57290;BME280;43523;53.022;-1.178;2023-06-26T03:16:37;100807.79;;;7.29;100.00
57290;BME280;43523;53.022;-1.178;2023-06-26T03:17:44;100803.95;;;7.71;100.00
57290;BME280;43523;53.022;-1.178;2023-06-26T03:18:49;100809.46;;;7.52;100.00
57290;BME280;43523;53.022;-1.178;2023-06-26T03:19:56;100799.07;;;7.55;100.00
57290;BME280;43523;53.022;-1.178;2023-06-26T03:21:02;100806.37;;;7.49;100.00
57290;BME280;43523;53.022;-1.178;2023-06-26T03:22:07;100801.58;;;7.74;100.00
57290;BME280;43523;53.022;-1.178;2023-06-26T03:23:14;100800.03;;;7.37;100.00
57290;BME280;43523;53.022;-1.178;2023-06-26T03:24:19;100807.43;;;7.28;100.00
57290;BME280;43523;53.022;-1.178;2023-06-26T03:25:26;100802.27;;;7.71;100.00
57290;BME280;43523;53.022;-1.178;2023-06-26T03:26:34;100809.27;;;7.56;100.00
57290;BME280;43523;53.022;-1.178;2023-06-26T03:27:40;100811.15;;;6.83;100.00
57290;BME280;43523;53.022;-1.178;2023-06-26T03:28:46;100813.68;;;6.95;100.00
57290;BME280;43523;53.022;-1.178;2023-06-26T03:29:52;100810.84;;;7.22;100.00
57290;BME280;43523;53.022;-1.178;2023-06-26T03:30:58;100804.29;;;7.71;100.00
57290;BME280;43523;53.022;-1.178;2023-06-26T03:32:04;100803.00;;;7.54;100.00
57290;BME280;43523;53.022;-1.178;2023-06-26T03:33:11;100805.85;;;7.78;100.00
57290;BME280;43523;53.022;-1.178;2023-06-26T03:34:18;100809.10;;;7.00;100.00
57290;BME280;43523;53.022;-1.178;2023-06-26T03:35:25;100812.26;;;7.32;100.00
57290;BME280;43523;53.022;-1.178;2023-06-26T03:36:31;100808.56;;;7.52;100.00
57290;BME280;43523;53.022;-1.178;2023-06-26T03:37:38;100810.44;;;7.46;100.00
57290;BME280;43523;53.022;-1.178;2023-06-26T03:38:43;100816.82;;;7.21;100.00
57290;BME280;43523;53.022;-1.178;2023-06-26T03:39:49;100812.19;;;7.32;100.00
57290;BME280;43523;53.022;-1.178;2023-06-26T03:40:56;100814.31;;;7.53;100.00
57290;BME280;43523;53.022;-1.178;2023-06-26T03:42:04;100814.00;;;7.14;100.00
57290;BME280;43523;53.022;-1.178;2023-06-26T03:43:12;100815.62;;;7.62;100.00
57290;BME280;43523;53.022;-1.178;2023-06-26T03:44:18;100818.18;;;7.39;100.00
57290;BME280;43523;53.022;-1.178;2023-06-26T03:45:24;100819.39;;;7.71;100.00
57290;BME280;43523;53.022;-1.178;2023-06-26T03:46:30;100822.47;;;7.44;100.00
57290;BME280;43523;53.022;-1.178;2023-06-26T03:47:38;100821.03;;;6.58;100.00
57290;BME280;43523;53.022;-1.178;2023-06-26T03:48:43;100821.78;;;7.65;100.00
57290;BME280;43523;53.022;-1.178;2023-06-26T03:49:51;100825.15;;;7.58;100.00
57290;BME280;43523;53.022;-1.178;2023-06-26T03:50:57;100824.24;;;8.29;100.00
57290;BME280;43523;53.022;-1.178;2023-06-26T03:52:16;100823.63;;;8.20;100.00
57290;BME280;43523;53.022;-1.178;2023-06-26T03:53:23;100826.19;;;8.04;100.00
57290;BME280;43523;53.022;-1.178;2023-06-26T03:54:29;100825.63;;;8.00;100.00
57290;BME280;43523;53.022;-1.178;2023-06-26T03:55:36;100828.83;;;7.70;100.00
57290;BME280;43523;53.022;-1.178;2023-06-26T03:56:46;100833.06;;;7.29;100.00
57290;BME280;43523;53.022;-1.178;2023-06-26T03:57:54;100832.55;;;6.78;100.00
57290;BME280;43523;53.022;-1.178;2023-06-26T03:59:00;100828.23;;;7.67;100.00
57290;BME280;43523;53.022;-1.178;2023-06-26T04:00:08;100831.65;;;7.38;100.00
57290;BME280;43523;53.022;-1.178;2023-06-26T04:01:16;100833.04;;;7.75;100.00
57290;BME280;43523;53.022;-1.178;2023-06-26T04:02:22;100833.01;;;7.89;100.00
57290;BME280;43523;53.022;-1.178;2023-06-26T04:03:31;100835.25;;;7.60;100.00
57290;BME280;43523;53.022;-1.178;2023-06-26T04:04:37;100834.66;;;8.08;100.00
57290;BME280;43523;53.022;-1.178;2023-06-26T04:05:44;100835.51;;;7.35;100.00
57290;BME280;43523;53.022;-1.178;2023-06-26T04:06:51;100837.62;;;7.42;100.00
57290;BME280;43523;53.022;-1.178;2023-06-26T04:07:57;100841.99;;;7.51;100.00
57290;BME280;43523;53.022;-1.178;2023-06-26T04:09:04;100843.94;;;7.90;100.00
57290;BME280;43523;53.022;-1.178;2023-06-26T04:10:10;100846.42;;;7.59;100.00
57290;BME280;43523;53.022;-1.178;2023-06-26T04:11:16;100849.34;;;7.87;100.00
57290;BME280;43523;53.022;-1.178;2023-06-26T04:12:21;100850.85;;;7.65;100.00
57290;BME280;43523;53.022;-1.178;2023-06-26T04:13:27;100855.41;;;7.15;100.00
57290;BME280;43523;53.022;-1.178;2023-06-26T04:14:34;100853.03;;;7.94;100.00
57290;BME280;43523;53.022;-1.178;2023-06-26T04:15:41;100849.40;;;7.89;100.00
57290;BME280;43523;53.022;-1.178;2023-06-26T04:16:46;100852.03;;;7.91;100.00
57290;BME280;43523;53.022;-1.178;2023-06-26T04:17:52;100854.55;;;7.65;100.00
57290;BME280;43523;53.022;-1.178;2023-06-26T04:18:57;100857.08;;;8.05;100.00
57290;BME280;43523;53.022;-1.178;2023-06-26T04:20:06;100855.79;;;8.49;100.00
57290;BME280;43523;53.022;-1.178;2023-06-26T04:21:18;100857.72;;;7.74;100.00
57290;BME280;43523;53.022;-1.178;2023-06-26T04:22:27;100862.22;;;8.33;100.00
57290;BME280;43523;53.022;-1.178;2023-06-26T04:23:33;100865.07;;;8.38;100.00
57290;BME280;43523;53.022;-1.178;2023-06-26T04:24:38;100867.01;;;8.62;100.00
57290;BME280;43523;53.022;-1.178;2023-06-26T04:25:43;100867.59;;;8.21;100.00
57290;BME280;43523;53.022;-1.178;2023-06-26T04:26:56;100866.78;;;8.46;100.00
57290;BME280;43523;53.022;-1.178;2023-06-26T04:28:02;100865.64;;;7.64;100.00
57290;BME280;43523;53.022;-1.178;2023-06-26T04:29:09;100872.36;;;6.80;100.00
57290;BME280;43523;53.022;-1.178;2023-06-26T04:30:16;100873.61;;;7.38;100.00
57290;BME280;43523;53.022;-1.178;2023-06-26T04:31:22;100872.85;;;8.37;100.00
57290;BME280;43523;53.022;-1.178;2023-06-26T04:32:28;100876.36;;;8.36;100.00
57290;BME280;43523;53.022;-1.178;2023-06-26T04:33:35;100880.09;;;8.15;100.00
57290;BME280;43523;53.022;-1.178;2023-06-26T04:34:41;100880.28;;;8.15;100.00
57290;BME280;43523;53.022;-1.178;2023-06-26T04:35:47;100881.08;;;8.44;100.00
57290;BME280;43523;53.022;-1.178;2023-06-26T04:36:54;100886.35;;;8.34;100.00
57290;BME280;43523;53.022;-1.178;2023-06-26T04:37:59;100883.74;;;8.38;100.00
57290;BME280;43523;53.022;-1.178;2023-06-26T04:39:06;100886.63;;;8.62;100.00
57290;BME280;43523;53.022;-1.178;2023-06-26T04:40:13;100884.74;;;8.68;100.00
57290;BME280;43523;53.022;-1.178;2023-06-26T04:41:26;100887.25;;;8.66;100.00
57290;BME280;43523;53.022;-1.178;2023-06-26T04:42:32;100889.39;;;8.51;100.00
57290;BME280;43523;53.022;-1.178;2023-06-26T04:43:39;100890.76;;;8.57;100.00
57290;BME280;43523;53.022;-1.178;2023-06-26T04:44:45;100886.00;;;8.97;100.00
57290;BME280;43523;53.022;-1.178;2023-06-26T04:45:50;100888.43;;;8.80;100.00
57290;BME280;43523;53.022;-1.178;2023-06-26T04:46:56;100892.91;;;8.77;100.00
57290;BME280;43523;53.022;-1.178;2023-06-26T04:48:04;100888.05;;;8.72;100.00
57290;BME280;43523;53.022;-1.178;2023-06-26T04:49:11;100891.45;;;8.90;100.00
57290;BME280;43523;53.022;-1.178;2023-06-26T04:50:16;100893.18;;;8.54;100.00
57290;BME280;43523;53.022;-1.178;2023-06-26T04:51:23;100893.02;;;8.57;100.00
57290;BME280;43523;53.022;-1.178;2023-06-26T04:52:30;100896.12;;;8.47;100.00
57290;BME280;43523;53.022;-1.178;2023-06-26T04:53:48;100895.32;;;8.57;100.00
57290;BME280;43523;53.022;-1.178;2023-06-26T04:54:55;100897.42;;;7.87;100.00
57290;BME280;43523;53.022;-1.178;2023-06-26T04:56:01;100897.40;;;8.14;100.00
57290;BME280;43523;53.022;-1.178;2023-06-26T04:57:08;100900.74;;;8.62;100.00
57290;BME280;43523;53.022;-1.178;2023-06-26T04:58:16;100898.37;;;9.30;100.00
57290;BME280;43523;53.022;-1.178;2023-06-26T04:59:22;100896.54;;;8.82;100.00
57290;BME280;43523;53.022;-1.178;2023-06-26T05:00:31;100901.84;;;8.54;100.00
57290;BME280;43523;53.022;-1.178;2023-06-26T05:01:37;100901.74;;;8.86;100.00
57290;BME280;43523;53.022;-1.178;2023-06-26T05:02:42;100897.30;;;9.07;100.00
57290;BME280;43523;53.022;-1.178;2023-06-26T05:03:50;100900.92;;;8.56;100.00
57290;BME280;43523;53.022;-1.178;2023-06-26T05:04:56;100902.04;;;8.72;100.00
57290;BME280;43523;53.022;-1.178;2023-06-26T05:06:05;100903.24;;;8.49;100.00
57290;BME280;43523;53.022;-1.178;2023-06-26T05:07:10;100903.86;;;8.70;100.00
57290;BME280;43523;53.022;-1.178;2023-06-26T05:08:18;100900.15;;;8.99;100.00
57290;BME280;43523;53.022;-1.178;2023-06-26T05:09:24;100902.34;;;8.88;100.00
57290;BME280;43523;53.022;-1.178;2023-06-26T05:10:32;100899.20;;;9.41;100.00
57290;BME280;43523;53.022;-1.178;2023-06-26T05:11:38;100903.29;;;9.19;100.00
57290;BME280;43523;53.022;-1.178;2023-06-26T05:12:46;100903.26;;;9.23;100.00
57290;BME280;43523;53.022;-1.178;2023-06-26T05:13:57;100907.49;;;9.23;100.00
57290;BME280;43523;53.022;-1.178;2023-06-26T05:15:05;100910.06;;;8.58;100.00
57290;BME280;43523;53.022;-1.178;2023-06-26T05:16:12;100908.22;;;8.66;100.00
57290;BME280;43523;53.022;-1.178;2023-06-26T05:17:20;100910.00;;;8.66;100.00
57290;BME280;43523;53.022;-1.178;2023-06-26T05:18:29;100914.06;;;9.44;100.00
57290;BME280;43523;53.022;-1.178;2023-06-26T05:19:38;100913.36;;;9.35;100.00
57290;BME280;43523;53.022;-1.178;2023-06-26T05:20:47;100915.03;;;9.54;100.00
57290;BME280;43523;53.022;-1.178;2023-06-26T05:21:53;100915.31;;;8.75;100.00
57290;BME280;43523;53.022;-1.178;2023-06-26T05:23:02;100914.96;;;9.34;100.00
57290;BME280;43523;53.022;-1.178;2023-06-26T05:24:14;100921.07;;;8.18;100.00
57290;BME280;43523;53.022;-1.178;2023-06-26T05:25:29;100921.76;;;8.77;100.00
57290;BME280;43523;53.022;-1.178;2023-06-26T05:26:37;100923.35;;;9.54;100.00
57290;BME280;43523;53.022;-1.178;2023-06-26T05:27:54;100923.73;;;9.23;100.00
57290;BME280;43523;53.022;-1.178;2023-06-26T05:29:04;100925.63;;;9.55;100.00
57290;BME280;43523;53.022;-1.178;2023-06-26T05:30:14;100924.38;;;9.01;100.00
57290;BME280;43523;53.022;-1.178;2023-06-26T05:31:24;100927.20;;;9.35;100.00
57290;BME280;43523;53.022;-1.178;2023-06-26T05:32:37;100931.07;;;8.80;100.00
57290;BME280;43523;53.022;-1.178;2023-06-26T05:33:47;100930.46;;;8.86;100.00
57290;BME280;43523;53.022;-1.178;2023-06-26T05:34:55;100929.08;;;9.00;100.00
57290;BME280;43523;53.022;-1.178;2023-06-26T05:36:08;100933.70;;;8.78;100.00
57290;BME280;43523;53.022;-1.178;2023-06-26T05:37:21;100935.81;;;9.64;100.00
57290;BME280;43523;53.022;-1.178;2023-06-26T05:38:27;100935.46;;;9.13;100.00
57290;BME280;43523;53.022;-1.178;2023-06-26T05:39:37;100937.51;;;9.72;100.00
57290;BME280;43523;53.022;-1.178;2023-06-26T05:40:52;100943.93;;;10.03;100.00
57290;BME280;43523;53.022;-1.178;2023-06-26T05:42:01;100943.14;;;9.53;100.00
57290;BME280;43523;53.022;-1.178;2023-06-26T05:43:09;100955.22;;;9.97;100.00